Time;durP1;ratioP1;P1;durP2;ratioP2;P2;SDS_P1;SDS_P2;PMS_P1;PMS_P2;Temp;Humidity;BMP_temperature;BMP_pressure;BME280_temperature;BME280_humidity;BME280_pressure;Samples;Min_cycle;Max_cycle;Signal;HPM_P1;HPM_P2
2022/04/16 00:00:15;;;;;;;21.03;13.57;;;5.40;99.90;;;;;;5053647;28;20207;-61
2022/04/16 00:02:41;;;;;;;17.57;12.63;;;5.40;99.90;;;;;;5053660;28;20163;-61
2022/04/16 00:05:07;;;;;;;20.50;13.37;;;5.30;99.90;;;;;;5053309;28;20182;-61
2022/04/16 00:07:33;;;;;;;17.80;12.77;;;5.20;99.90;;;;;;5051970;28;20182;-61
2022/04/16 00:09:59;;;;;;;20.27;13.80;;;5.30;99.90;;;;;;5053079;28;20198;-61
2022/04/16 00:12:27;;;;;;;19.07;13.57;;;5.20;99.90;;;;;;5053602;28;20212;-61
2022/04/16 00:14:53;;;;;;;16.60;13.10;;;5.20;99.90;;;;;;5053535;28;20170;-62
2022/04/16 00:17:19;;;;;;;17.63;12.93;;;5.20;99.90;;;;;;5053819;28;20182;-62
2022/04/16 00:19:45;;;;;;;16.43;12.30;;;5.20;99.90;;;;;;5053269;28;20586;-64
2022/04/16 00:22:12;;;;;;;17.83;13.20;;;5.20;99.90;;;;;;5054584;28;20174;-61
2022/04/16 00:24:44;;;;;;;17.47;13.47;;;5.20;99.90;;;;;;5057056;28;20623;-61
2022/04/16 00:27:10;;;;;;;18.50;13.27;;;5.30;99.90;;;;;;5057511;28;20216;-62
2022/04/16 00:29:39;;;;;;;17.53;13.07;;;5.30;99.90;;;;;;5057349;28;20573;-61
2022/04/16 00:32:06;;;;;;;16.90;12.73;;;5.30;99.90;;;;;;5057420;28;20536;-61
2022/04/16 00:34:33;;;;;;;19.33;13.60;;;5.30;99.90;;;;;;5057348;28;20188;-61
2022/04/16 00:36:59;;;;;;;15.77;12.60;;;5.30;99.90;;;;;;5056942;28;20186;-61
2022/04/16 00:39:25;;;;;;;18.47;12.67;;;5.30;99.90;;;;;;5056993;28;20667;-61
2022/04/16 00:41:51;;;;;;;19.70;14.03;;;5.20;99.90;;;;;;5056824;28;20635;-61
2022/04/16 00:44:20;;;;;;;18.13;14.33;;;5.20;99.90;;;;;;5057261;28;20178;-61
2022/04/16 00:46:49;;;;;;;17.37;13.00;;;5.20;99.90;;;;;;5057511;28;20229;-60
2022/04/16 00:49:15;;;;;;;17.67;13.50;;;5.20;99.90;;;;;;5057692;28;20178;-61
2022/04/16 00:51:45;;;;;;;18.53;13.03;;;5.10;99.90;;;;;;5056720;28;20182;-60
2022/04/16 00:54:11;;;;;;;17.30;13.23;;;5.00;99.90;;;;;;5058128;28;20208;-61
2022/04/16 00:56:38;;;;;;;19.60;13.47;;;5.00;99.90;;;;;;5056933;28;20261;-62
2022/04/16 00:59:04;;;;;;;17.03;13.13;;;5.00;99.90;;;;;;5055689;28;20693;-62
2022/04/16 01:01:30;;;;;;;16.93;13.27;;;5.00;99.90;;;;;;5056693;28;20194;-61
2022/04/16 01:03:56;;;;;;;18.53;13.57;;;4.90;99.90;;;;;;5056559;28;20266;-61
2022/04/16 01:06:22;;;;;;;15.63;12.47;;;4.90;99.90;;;;;;5056874;28;20221;-61
2022/04/16 01:08:48;;;;;;;17.93;13.27;;;4.90;99.90;;;;;;5056542;28;20186;-61
2022/04/16 01:11:15;;;;;;;19.13;13.13;;;4.90;99.90;;;;;;5056205;28;20252;-61
2022/04/16 01:13:45;;;;;;;18.00;13.67;;;5.00;99.90;;;;;;5056278;28;20570;-63
2022/04/16 01:16:11;;;;;;;18.30;13.73;;;5.00;99.90;;;;;;5056746;28;20158;-61
2022/04/16 01:18:45;;;;;;;19.70;14.17;;;4.90;99.90;;;;;;5056611;28;20277;-61
2022/04/16 01:21:11;;;;;;;15.93;13.33;;;4.80;99.90;;;;;;5056025;28;20201;-61
2022/04/16 01:23:37;;;;;;;17.50;13.77;;;4.80;99.90;;;;;;5056215;28;20178;-61
2022/04/16 01:26:02;;;;;;;20.47;13.43;;;4.90;99.90;;;;;;5055797;28;20591;-60
2022/04/16 01:28:28;;;;;;;21.97;14.50;;;4.80;99.90;;;;;;5056378;28;20185;-61
2022/04/16 01:30:54;;;;;;;20.67;14.67;;;4.80;99.90;;;;;;5056377;28;20209;-61
2022/04/16 01:33:21;;;;;;;18.73;13.27;;;4.70;99.90;;;;;;5056009;28;20639;-61
2022/04/16 01:35:51;;;;;;;20.47;14.57;;;4.70;99.90;;;;;;5056011;28;20666;-60
2022/04/16 01:38:17;;;;;;;19.30;14.30;;;4.70;99.90;;;;;;5056082;28;20557;-61
2022/04/16 01:40:42;;;;;;;19.97;14.17;;;4.60;99.90;;;;;;5054230;28;20217;-61
2022/04/16 01:43:08;;;;;;;21.20;14.23;;;4.60;99.90;;;;;;5056029;28;20206;-62
2022/04/16 01:45:34;;;;;;;17.53;14.10;;;4.60;99.90;;;;;;5055835;28;20179;-61
2022/04/16 01:48:00;;;;;;;18.80;13.80;;;4.60;99.90;;;;;;5055985;28;20171;-61
2022/04/16 01:50:26;;;;;;;20.00;13.53;;;4.50;99.90;;;;;;5055760;28;20197;-61
2022/04/16 01:52:52;;;;;;;16.33;13.73;;;4.50;99.90;;;;;;5055738;28;20593;-61
2022/04/16 01:55:18;;;;;;;17.03;13.77;;;4.30;99.90;;;;;;5055516;28;20252;-61
2022/04/16 01:57:44;;;;;;;17.10;14.07;;;4.40;99.90;;;;;;5055652;28;20189;-61
2022/04/16 02:00:12;;;;;;;17.47;13.27;;;4.30;99.90;;;;;;5055319;28;20256;-61
2022/04/16 02:02:38;;;;;;;19.63;13.60;;;4.20;99.90;;;;;;5055460;28;20175;-61
2022/04/16 02:05:08;;;;;;;15.27;13.30;;;4.20;99.90;;;;;;5055712;28;20171;-61
2022/04/16 02:07:34;;;;;;;18.83;13.80;;;4.20;99.90;;;;;;5056494;28;20216;-61
2022/04/16 02:10:00;;;;;;;18.50;13.47;;;4.30;99.90;;;;;;5055317;28;20261;-60
2022/04/16 02:12:27;;;;;;;16.87;13.67;;;4.20;99.90;;;;;;5055502;28;20176;-61
2022/04/16 02:14:53;;;;;;;17.37;13.70;;;4.30;99.90;;;;;;5055591;28;20174;-61
2022/04/16 02:17:18;;;;;;;19.93;13.90;;;4.40;99.90;;;;;;5055764;28;20188;-60
2022/04/16 02:19:44;;;;;;;19.53;14.10;;;4.50;99.90;;;;;;5055211;28;20271;-61
2022/04/16 02:22:11;;;;;;;18.53;14.63;;;4.50;99.90;;;;;;5055176;28;20688;-61
2022/04/16 02:24:38;;;;;;;20.03;14.67;;;4.60;99.90;;;;;;5055204;28;20582;-60
2022/04/16 02:27:04;;;;;;;24.43;15.83;;;4.50;99.90;;;;;;5053547;28;20178;-61
2022/04/16 02:29:31;;;;;;;20.40;14.57;;;4.60;99.90;;;;;;5054769;28;20308;-61
2022/04/16 02:31:57;;;;;;;21.97;16.17;;;4.60;99.90;;;;;;5054921;28;20170;-61
2022/04/16 02:34:23;;;;;;;20.40;14.80;;;4.50;99.90;;;;;;5054764;28;20667;-61
2022/04/16 02:36:49;;;;;;;19.63;15.10;;;4.30;99.90;;;;;;5054788;28;20251;-61
2022/04/16 02:39:15;;;;;;;19.90;13.80;;;4.20;99.90;;;;;;5054569;28;20220;-61
2022/04/16 02:41:41;;;;;;;16.93;12.57;;;4.20;99.90;;;;;;5054547;28;20217;-60
2022/04/16 02:47:05;;;;;;;16.43;12.60;;;4.20;99.90;;;;;;5054752;28;20179;-61
2022/04/16 02:47:05;;;;;;;15.37;11.57;;;4.00;99.90;;;;;;5054426;28;20170;-61
2022/04/16 02:49:31;;;;;;;17.37;12.73;;;3.90;99.90;;;;;;5054807;28;20159;-60
2022/04/16 02:51:57;;;;;;;15.70;12.37;;;3.80;99.90;;;;;;5054737;28;20182;-61
2022/04/16 02:54:25;;;;;;;18.33;13.07;;;3.70;99.90;;;;;;5053216;28;20277;-61
2022/04/16 02:56:51;;;;;;;19.33;13.67;;;3.70;99.90;;;;;;5054260;28;20170;-60
2022/04/16 02:59:16;;;;;;;15.27;13.07;;;3.70;99.90;;;;;;5054947;28;20244;-61
2022/04/16 03:01:42;;;;;;;18.83;13.80;;;3.70;99.90;;;;;;5054716;28;20178;-61
2022/04/16 03:04:08;;;;;;;19.87;14.73;;;3.80;99.90;;;;;;5054634;28;20258;-62
2022/04/16 03:06:33;;;;;;;19.70;14.13;;;3.90;99.90;;;;;;5054809;28;20175;-61
2022/04/16 03:08:59;;;;;;;19.70;15.10;;;4.00;99.90;;;;;;5054301;28;20183;-61
2022/04/16 03:11:25;;;;;;;22.17;15.67;;;4.20;99.90;;;;;;5053764;28;20301;-61
2022/04/16 03:13:51;;;;;;;19.47;13.93;;;4.20;99.90;;;;;;5054049;28;20182;-61
2022/04/16 03:19:01;;;;;;;18.13;13.30;;;4.20;99.90;;;;;;5054505;28;20174;-61
2022/04/16 03:21:26;;;;;;;16.33;12.77;;;4.30;99.90;;;;;;5053731;28;20585;-62
2022/04/16 03:23:52;;;;;;;15.13;12.97;;;4.30;99.90;;;;;;5054054;28;20239;-61
2022/04/16 03:26:18;;;;;;;16.07;13.33;;;4.40;99.90;;;;;;5053622;28;20208;-61
2022/04/16 03:28:44;;;;;;;16.70;12.93;;;4.50;99.90;;;;;;5052664;28;20170;-61
2022/04/16 03:31:09;;;;;;;16.13;13.40;;;4.50;99.90;;;;;;5053964;28;20200;-61
2022/04/16 03:33:36;;;;;;;18.80;14.63;;;4.50;99.90;;;;;;5054199;28;20670;-60
2022/04/16 03:36:03;;;;;;;18.90;14.13;;;4.40;99.90;;;;;;5053600;28;20178;-61
2022/04/16 03:38:28;;;;;;;15.93;13.50;;;4.30;99.90;;;;;;5053822;28;20193;-61
2022/04/16 03:40:54;;;;;;;18.70;14.37;;;4.30;99.90;;;;;;5053180;28;20289;-61
2022/04/16 03:43:21;;;;;;;18.03;14.03;;;4.30;99.90;;;;;;5053491;28;20186;-61
2022/04/16 03:45:47;;;;;;;19.03;13.83;;;4.20;99.90;;;;;;5053842;28;20171;-61
2022/04/16 03:48:13;;;;;;;20.63;15.37;;;4.20;99.90;;;;;;5053431;28;20250;-61
2022/04/16 03:50:40;;;;;;;18.63;14.63;;;4.10;99.90;;;;;;5053435;28;20209;-60
2022/04/16 03:53:05;;;;;;;20.87;15.03;;;4.10;99.90;;;;;;5053588;28;20186;-61
2022/04/16 04:01:04;;;;;;;20.20;15.43;;;4.10;99.90;;;;;;5053489;28;20220;-61
2022/04/16 04:03:30;;;;;;;22.60;16.30;;;4.10;99.90;;;;;;5054728;28;20515;-61
2022/04/16 04:05:58;;;;;;;20.60;15.23;;;4.10;99.90;;;;;;5053425;28;20637;-62
2022/04/16 04:08:25;;;;;;;21.00;16.30;;;4.10;99.90;;;;;;5053499;28;20189;-61
2022/04/16 04:10:51;;;;;;;21.13;15.70;;;4.00;99.90;;;;;;5052879;28;20583;-61
2022/04/16 04:13:18;;;;;;;22.67;16.73;;;4.00;99.90;;;;;;5052268;28;20273;-61
2022/04/16 04:15:44;;;;;;;20.53;15.83;;;4.00;99.90;;;;;;5053959;28;20182;-61
2022/04/16 04:18:10;;;;;;;22.50;16.97;;;4.00;99.90;;;;;;5053316;28;20201;-60
2022/04/16 04:20:36;;;;;;;23.20;17.13;;;4.00;99.90;;;;;;5053182;28;20218;-61
2022/04/16 04:23:05;;;;;;;21.07;15.23;;;4.00;99.90;;;;;;5053203;28;20182;-61
2022/04/16 04:25:31;;;;;;;20.23;14.80;;;4.00;99.90;;;;;;5053016;28;20189;-61
2022/04/16 04:27:57;;;;;;;16.97;14.17;;;4.00;99.90;;;;;;5052821;28;20178;-61
2022/04/16 04:30:23;;;;;;;21.20;15.70;;;3.80;99.90;;;;;;5053090;28;20209;-62
2022/04/16 04:32:48;;;;;;;17.87;14.10;;;3.80;99.90;;;;;;5053063;28;20186;-61
2022/04/16 04:35:15;;;;;;;19.90;15.20;;;3.80;99.90;;;;;;5052995;28;20560;-61
2022/04/16 04:37:41;;;;;;;18.70;14.03;;;3.70;99.90;;;;;;5053091;28;20178;-61
2022/04/16 04:40:07;;;;;;;17.33;14.00;;;3.70;99.90;;;;;;5053054;28;20202;-61
2022/04/16 04:42:35;;;;;;;18.60;14.30;;;3.70;99.90;;;;;;5052963;28;20628;-61
2022/04/16 04:45:12;;;;;;;20.40;14.17;;;3.70;99.90;;;;;;5053584;28;20178;-60
2022/04/16 04:47:38;;;;;;;18.90;14.73;;;3.60;99.90;;;;;;5053095;28;20250;-60
2022/04/16 04:50:05;;;;;;;18.43;13.30;;;3.60;99.90;;;;;;5053094;28;20194;-61
2022/04/16 04:52:31;;;;;;;17.07;14.00;;;3.60;99.90;;;;;;5053572;28;20253;-63
2022/04/16 04:54:58;;;;;;;19.70;14.40;;;3.60;99.90;;;;;;5053231;28;20205;-61
2022/04/16 04:57:24;;;;;;;18.63;13.33;;;3.60;99.90;;;;;;5052952;28;20719;-61
2022/04/16 04:59:50;;;;;;;21.43;15.03;;;3.70;99.90;;;;;;5052864;28;20573;-61
2022/04/16 05:02:16;;;;;;;17.70;14.17;;;3.80;99.90;;;;;;5053354;28;20186;-61
2022/04/16 05:04:42;;;;;;;23.20;15.57;;;4.00;99.90;;;;;;5052731;28;20179;-60
2022/04/16 05:07:09;;;;;;;19.27;14.90;;;4.00;99.90;;;;;;5052967;28;20688;-61
2022/04/16 05:09:35;;;;;;;18.60;15.40;;;4.00;99.90;;;;;;5055619;28;20205;-61
2022/04/16 05:12:01;;;;;;;20.13;14.87;;;4.00;99.90;;;;;;5056086;28;20193;-61
2022/04/16 05:14:27;;;;;;;17.97;14.57;;;4.00;99.90;;;;;;5056742;28;20570;-60
2022/04/16 05:16:53;;;;;;;20.13;15.63;;;4.00;99.90;;;;;;5056252;28;20228;-60
2022/04/16 05:19:18;;;;;;;18.97;14.97;;;4.10;99.90;;;;;;5055990;28;20167;-61
2022/04/16 05:21:44;;;;;;;19.83;15.47;;;4.10;99.90;;;;;;5056093;28;20781;-60
2022/04/16 05:24:10;;;;;;;16.53;14.30;;;4.10;99.90;;;;;;5055999;28;20540;-61
2022/04/16 05:26:39;;;;;;;21.00;15.10;;;4.20;99.90;;;;;;5055868;28;20201;-61
2022/04/16 05:29:06;;;;;;;21.73;15.57;;;4.20;99.90;;;;;;5055823;28;20181;-61
2022/04/16 05:31:32;;;;;;;18.87;15.07;;;4.30;99.90;;;;;;5055726;28;20249;-61
2022/04/16 05:36:43;;;;;;;20.53;15.87;;;4.50;99.90;;;;;;5056356;28;20197;-62
2022/04/16 05:39:09;;;;;;;20.87;15.77;;;4.60;99.90;;;;;;5055728;28;20182;-61
2022/04/16 05:41:35;;;;;;;20.47;15.80;;;4.70;99.90;;;;;;5054109;28;20233;-62
2022/04/16 05:44:04;;;;;;;21.27;16.63;;;4.80;99.90;;;;;;5055710;28;20250;-62
2022/04/16 05:46:30;;;;;;;22.47;16.47;;;4.80;99.90;;;;;;5055632;28;20247;-63
2022/04/16 05:48:56;;;;;;;21.67;15.77;;;4.90;99.90;;;;;;5055623;28;20624;-63
2022/04/16 05:51:22;;;;;;;21.67;16.30;;;5.10;99.90;;;;;;5055745;28;20198;-62
2022/04/16 05:53:49;;;;;;;23.33;16.60;;;5.20;99.90;;;;;;5055561;28;20189;-61
2022/04/16 05:56:16;;;;;;;19.60;15.67;;;5.30;99.90;;;;;;5055537;28;20167;-63
2022/04/16 05:58:42;;;;;;;22.03;16.50;;;5.40;99.90;;;;;;5055639;28;20202;-62
2022/04/16 06:01:09;;;;;;;22.87;17.37;;;5.50;99.90;;;;;;5055418;28;20210;-62
2022/04/16 06:03:36;;;;;;;22.10;17.70;;;5.60;99.90;;;;;;5056389;28;20495;-62
2022/04/16 06:06:03;;;;;;;20.83;15.03;;;5.70;99.90;;;;;;5055328;28;20182;-62
2022/04/16 06:08:29;;;;;;;18.23;14.70;;;5.90;99.90;;;;;;5055227;28;20181;-61
2022/04/16 06:10:55;;;;;;;15.57;13.67;;;6.00;99.90;;;;;;5054873;28;20289;-62
2022/04/16 06:13:21;;;;;;;17.40;14.53;;;6.10;99.90;;;;;;5055036;28;20228;-61
2022/04/16 06:15:46;;;;;;;22.90;15.60;;;6.20;99.90;;;;;;5054138;28;20178;-62
2022/04/16 06:18:12;;;;;;;23.23;15.40;;;6.30;99.90;;;;;;5055180;28;20202;-65
2022/04/16 06:20:38;;;;;;;22.23;17.40;;;6.50;99.90;;;;;;5053891;28;20238;-62
2022/04/16 06:23:05;;;;;;;26.10;18.17;;;6.60;99.90;;;;;;5053722;28;20631;-61
2022/04/16 06:25:31;;;;;;;25.70;18.77;;;6.80;99.90;;;;;;5054962;28;20165;-63
2022/04/16 06:27:58;;;;;;;29.90;19.00;;;6.90;99.90;;;;;;5054580;28;20241;-62
2022/04/16 06:30:23;;;;;;;26.80;18.40;;;7.10;99.90;;;;;;5057256;28;20277;-63
2022/04/16 06:32:49;;;;;;;25.73;17.73;;;7.20;99.90;;;;;;5054450;28;20254;-62
2022/04/16 06:35:15;;;;;;;24.93;16.80;;;7.40;99.90;;;;;;5055511;28;20198;-61
2022/04/16 06:37:44;;;;;;;26.90;17.80;;;7.60;99.90;;;;;;5055440;28;20163;-61
2022/04/16 06:40:13;;;;;;;23.87;16.90;;;7.70;99.90;;;;;;5054866;28;20245;-61
2022/04/16 06:42:40;;;;;;;20.37;15.17;;;7.90;99.90;;;;;;5054711;28;20175;-62
2022/04/16 06:45:08;;;;;;;22.43;15.33;;;8.10;99.90;;;;;;5054600;28;20175;-64
2022/04/16 06:47:34;;;;;;;23.40;16.87;;;8.30;99.90;;;;;;5054888;28;20151;-62
2022/04/16 06:49:59;;;;;;;24.93;16.37;;;8.40;99.90;;;;;;5054985;28;20194;-67
2022/04/16 06:52:25;;;;;;;22.53;15.67;;;8.50;99.90;;;;;;5055068;28;20162;-62
2022/04/16 06:54:51;;;;;;;24.87;16.97;;;8.70;99.90;;;;;;5054914;28;20189;-62
2022/04/16 06:57:17;;;;;;;24.03;16.03;;;8.80;99.90;;;;;;5053108;28;20208;-61
2022/04/16 06:59:43;;;;;;;22.10;17.00;;;8.90;99.90;;;;;;5054829;28;20202;-61
2022/04/16 07:02:10;;;;;;;26.20;16.27;;;9.00;99.90;;;;;;5054227;28;20163;-62
2022/04/16 07:04:37;;;;;;;26.20;17.33;;;9.10;99.90;;;;;;5054198;28;20546;-61
2022/04/16 07:07:03;;;;;;;24.03;16.43;;;9.20;99.90;;;;;;5054008;28;20725;-61
2022/04/16 07:09:29;;;;;;;22.23;16.70;;;9.20;99.90;;;;;;5053882;28;20183;-61
2022/04/16 07:11:55;;;;;;;25.03;17.20;;;9.30;99.90;;;;;;5053732;28;20236;-62
2022/04/16 07:14:21;;;;;;;21.43;16.60;;;9.40;99.90;;;;;;5052617;28;20174;-61
2022/04/16 07:16:47;;;;;;;25.47;16.77;;;9.50;99.90;;;;;;5053878;28;20217;-61
2022/04/16 07:19:13;;;;;;;23.23;16.67;;;9.50;99.90;;;;;;5053836;28;20209;-61
2022/04/16 07:21:39;;;;;;;27.90;17.57;;;9.60;99.90;;;;;;5053711;28;20238;-62
2022/04/16 07:24:04;;;;;;;23.83;16.63;;;9.70;99.90;;;;;;5054080;28;20174;-62
2022/04/16 07:26:30;;;;;;;23.83;16.17;;;9.80;99.90;;;;;;5053873;28;20177;-62
2022/04/16 07:28:56;;;;;;;21.83;16.20;;;10.00;99.90;;;;;;5052483;28;20543;-63
2022/04/16 07:31:22;;;;;;;25.60;17.17;;;10.00;99.90;;;;;;5053610;28;20190;-61
2022/04/16 07:33:48;;;;;;;22.67;16.37;;;10.10;99.90;;;;;;5054677;28;20618;-61
2022/04/16 07:36:14;;;;;;;23.30;17.43;;;10.20;99.90;;;;;;5052964;28;20170;-62
2022/04/16 07:38:43;;;;;;;23.10;16.33;;;10.30;99.90;;;;;;5053619;28;20184;-61
2022/04/16 07:41:09;;;;;;;22.37;15.93;;;10.40;99.90;;;;;;5053302;28;20707;-61
2022/04/16 07:43:36;;;;;;;19.93;15.77;;;10.40;99.90;;;;;;5053833;28;20193;-62
2022/04/16 07:46:02;;;;;;;21.27;14.90;;;10.50;99.90;;;;;;5052100;28;20168;-61
2022/04/16 07:48:27;;;;;;;21.17;15.50;;;10.60;99.90;;;;;;5052197;28;20182;-61
2022/04/16 07:50:53;;;;;;;21.33;15.83;;;10.80;99.90;;;;;;5053280;28;20194;-62
2022/04/16 07:53:20;;;;;;;20.33;14.53;;;10.90;99.90;;;;;;5053367;28;20253;-65
2022/04/16 07:55:46;;;;;;;19.93;14.67;;;10.90;99.90;;;;;;5053533;28;20262;-62
2022/04/16 07:58:11;;;;;;;21.30;15.27;;;10.90;99.90;;;;;;5053397;28;20210;-61
2022/04/16 08:00:37;;;;;;;20.57;14.93;;;11.00;99.90;;;;;;5053174;28;20206;-62
2022/04/16 08:03:03;;;;;;;21.57;15.20;;;11.10;99.90;;;;;;5053308;28;20544;-62
2022/04/16 08:05:28;;;;;;;20.17;14.20;;;11.20;99.90;;;;;;5053581;28;20174;-61
2022/04/16 08:07:54;;;;;;;20.93;14.20;;;11.20;99.90;;;;;;5053317;28;20185;-62
2022/04/16 08:10:20;;;;;;;17.40;13.32;;;11.40;99.90;;;;;;5053060;28;20284;-61
2022/04/16 08:12:46;;;;;;;20.03;14.53;;;11.50;99.90;;;;;;5053758;28;20612;-62
2022/04/16 08:15:12;;;;;;;18.60;13.93;;;11.50;99.90;;;;;;5053775;28;20174;-63
2022/04/16 08:17:37;;;;;;;21.07;14.53;;;11.60;99.90;;;;;;5053257;28;20185;-62
2022/04/16 08:20:07;;;;;;;18.33;13.83;;;11.60;99.90;;;;;;5052786;28;20211;-63
2022/04/16 08:22:38;;;;;;;19.98;13.15;;;11.90;99.90;;;;;;5053010;28;20175;-62
2022/04/16 08:27:49;;;;;;;16.25;11.70;;;13.90;99.90;;;;;;5052827;28;20186;-62
2022/04/16 08:30:17;;;;;;;15.40;10.85;;;15.50;99.90;;;;;;5052938;28;20209;-62
2022/04/16 08:32:44;;;;;;;12.88;10.13;;;16.50;99.90;;;;;;5053297;28;20639;-63
2022/04/16 08:35:11;;;;;;;11.55;9.68;;;17.60;99.90;;;;;;5053448;28;20158;-63
2022/04/16 08:37:37;;;;;;;13.18;9.82;;;18.10;99.90;;;;;;5053156;28;20187;-62
2022/04/16 08:40:06;;;;;;;12.27;9.07;;;18.70;99.90;;;;;;5052824;28;20229;-62
2022/04/16 08:42:37;;;;;;;13.30;9.30;;;18.90;99.90;;;;;;5052550;28;20171;-62
2022/04/16 08:45:05;;;;;;;12.45;9.63;;;19.10;99.90;;;;;;5056920;28;20171;-62
2022/04/16 08:47:31;;;;;;;12.52;9.15;;;19.20;99.90;;;;;;5056544;28;20236;-63
2022/04/16 08:49:59;;;;;;;12.00;8.57;;;19.20;99.90;;;;;;5056535;28;20278;-62
2022/04/16 08:52:29;;;;;;;10.57;8.63;;;19.40;99.90;;;;;;5056601;28;20174;-63
2022/04/16 08:54:56;;;;;;;11.25;8.82;;;19.50;99.90;;;;;;5055248;28;20177;-63
2022/04/16 08:57:21;;;;;;;10.55;8.00;;;19.80;99.90;;;;;;5056324;28;20174;-63
2022/04/16 08:59:54;;;;;;;10.65;8.48;;;19.90;99.90;;;;;;5056598;28;20348;-62
2022/04/16 09:02:26;;;;;;;10.48;8.63;;;20.00;99.90;;;;;;5056494;28;20708;-63
2022/04/16 09:05:09;;;;;;;11.40;7.65;;;19.80;99.90;;;;;;5056396;28;20565;-62
2022/04/16 09:07:46;;;;;;;9.50;7.10;;;19.80;99.90;;;;;;5056333;28;20174;-62
2022/04/16 09:10:12;;;;;;;10.40;7.70;;;19.70;99.90;;;;;;5056100;28;20732;-62
2022/04/16 09:12:41;;;;;;;9.13;7.28;;;19.50;99.90;;;;;;5056280;28;20163;-62
2022/04/16 09:15:10;;;;;;;9.43;7.15;;;18.80;99.90;;;;;;5056577;28;20265;-67
2022/04/16 09:17:37;;;;;;;12.38;8.70;;;18.10;99.90;;;;;;5056501;28;20167;-67
2022/04/16 09:20:14;;;;;;;10.32;7.43;;;17.80;99.90;;;;;;5054815;28;20606;-63
2022/04/16 09:22:48;;;;;;;10.20;7.38;;;17.50;99.90;;;;;;5056500;28;20679;-63
2022/04/16 09:25:18;;;;;;;12.43;8.27;;;17.40;99.90;;;;;;5056477;28;20154;-62
2022/04/16 09:27:46;;;;;;;9.60;7.50;;;17.00;99.90;;;;;;5056160;28;20554;-62
2022/04/16 09:30:21;;;;;;;9.02;7.40;;;16.90;99.90;;;;;;5056780;28;20197;-62
2022/04/16 09:32:47;;;;;;;9.98;7.40;;;16.60;99.90;;;;;;5055366;28;20170;-62
2022/04/16 09:35:46;;;;;;;10.55;7.75;;;16.40;99.90;;;;;;5056412;28;20715;-62
2022/04/16 09:38:12;;;;;;;8.75;6.78;;;16.00;99.90;;;;;;5055391;28;20194;-69
2022/04/16 09:40:38;;;;;;;8.98;7.18;;;15.70;99.90;;;;;;5055972;28;20296;-68
2022/04/16 09:43:06;;;;;;;11.10;7.55;;;15.30;99.90;;;;;;5054343;28;20181;-62
2022/04/16 09:45:32;;;;;;;10.38;7.07;;;14.80;99.90;;;;;;5055549;28;20623;-63
2022/04/16 09:47:59;;;;;;;8.50;7.00;;;14.30;99.90;;;;;;5054494;28;20185;-62
2022/04/16 09:50:27;;;;;;;9.85;7.70;;;14.20;99.90;;;;;;5055587;28;20248;-62
2022/04/16 09:52:54;;;;;;;8.15;6.60;;;14.00;99.90;;;;;;5054272;28;20188;-63
2022/04/16 09:55:22;;;;;;;9.65;7.10;;;14.10;99.90;;;;;;5055659;28;20524;-63
2022/04/16 09:57:52;;;;;;;12.27;7.05;;;14.40;99.90;;;;;;5055257;28;20177;-63
2022/04/16 10:00:18;;;;;;;10.98;6.65;;;14.70;99.90;;;;;;5055181;28;20407;-62
2022/04/16 10:02:45;;;;;;;9.13;6.65;;;14.80;99.90;;;;;;5056188;28;20158;-62
2022/04/16 10:05:11;;;;;;;9.45;7.25;;;14.90;99.90;;;;;;5056668;28;20598;-62
2022/04/16 10:07:37;;;;;;;7.57;6.38;;;15.00;99.90;;;;;;5055340;28;20166;-62
2022/04/16 10:10:17;;;;;;;8.82;6.32;;;15.20;99.90;;;;;;5054281;28;20690;-62
2022/04/16 10:13:01;;;;;;;7.50;5.88;;;15.20;99.90;;;;;;5053703;28;20194;-62
2022/04/16 10:15:43;;;;;;;10.23;6.25;;;15.30;99.90;;;;;;5054010;28;20182;-62
2022/04/16 10:18:11;;;;;;;9.95;6.50;;;15.10;99.90;;;;;;5055469;28;20645;-62
2022/04/16 10:20:37;;;;;;;9.75;6.20;;;14.80;99.90;;;;;;5055071;28;20294;-62
2022/04/16 10:23:04;;;;;;;9.85;6.82;;;14.80;99.90;;;;;;5055049;28;20210;-62
2022/04/16 10:25:40;;;;;;;8.82;6.82;;;14.90;99.90;;;;;;5055201;28;20171;-62
2022/04/16 10:28:15;;;;;;;10.30;7.38;;;15.10;99.90;;;;;;5054538;28;20165;-62
2022/04/16 10:30:49;;;;;;;9.75;6.82;;;15.00;99.90;;;;;;5055031;28;20214;-62
2022/04/16 10:33:31;;;;;;;9.27;6.82;;;15.00;99.90;;;;;;5054755;28;20167;-62
2022/04/16 10:36:09;;;;;;;8.35;5.85;;;15.10;99.90;;;;;;5055022;28;20159;-62
2022/04/16 10:38:38;;;;;;;9.95;5.97;;;15.10;99.90;;;;;;5053394;28;20191;-62
2022/04/16 10:41:12;;;;;;;7.25;5.80;;;15.20;99.90;;;;;;5054565;28;20201;-62
2022/04/16 10:43:38;;;;;;;6.38;5.38;;;15.30;99.90;;;;;;5054278;28;20176;-62
2022/04/16 10:46:09;;;;;;;7.28;5.68;;;15.30;99.90;;;;;;5054558;28;20174;-62
2022/04/16 10:48:35;;;;;;;7.65;5.93;;;15.50;99.90;;;;;;5053283;28;20216;-63
2022/04/16 10:51:01;;;;;;;6.85;5.50;;;15.50;99.90;;;;;;5054218;28;20742;-63
2022/04/16 10:53:35;;;;;;;8.27;5.90;;;15.70;99.90;;;;;;5054362;28;20670;-62
2022/04/16 10:56:12;;;;;;;8.35;5.85;;;15.80;99.90;;;;;;5054501;28;20166;-62
2022/04/16 10:58:43;;;;;;;6.57;5.40;;;15.90;99.90;;;;;;5053877;28;20188;-62
2022/04/16 11:01:13;;;;;;;9.50;6.22;;;15.90;99.90;;;;;;5054269;28;20217;-62
2022/04/16 11:03:45;;;;;;;6.57;5.30;;;16.00;99.90;;;;;;5052801;28;20216;-63
2022/04/16 11:06:10;;;;;;;7.03;5.30;;;16.00;99.90;;;;;;5053627;28;20182;-63
2022/04/16 11:08:41;;;;;;;6.03;4.28;;;16.30;99.90;;;;;;5052742;28;20189;-63
2022/04/16 11:11:08;;;;;;;5.65;4.13;;;16.20;99.90;;;;;;5053903;28;20214;-63
2022/04/16 11:13:35;;;;;;;6.40;4.43;;;16.30;99.90;;;;;;5053805;28;20182;-63
2022/04/16 11:16:02;;;;;;;4.40;4.00;;;16.20;99.90;;;;;;5053981;28;20181;-63
2022/04/16 11:18:45;;;;;;;5.45;3.50;;;16.30;99.90;;;;;;5052470;28;20273;-62
2022/04/16 11:21:12;;;;;;;6.07;3.72;;;16.40;99.90;;;;;;5052297;28;20249;-63
2022/04/16 11:23:42;;;;;;;5.03;3.60;;;16.70;99.90;;;;;;5053668;28;20167;-62
2022/04/16 11:34:31;;;;;;;4.72;3.85;;;17.30;99.90;;;;;;5053896;28;20173;-63
2022/04/16 11:37:01;;;;;;;4.63;3.60;;;17.10;99.90;;;;;;5052432;28;20269;-62
2022/04/16 11:39:31;;;;;;;4.18;3.38;;;17.40;99.90;;;;;;5053643;28;20707;-63
2022/04/16 11:41:58;;;;;;;4.55;4.03;;;17.80;99.90;;;;;;5053275;28;20197;-63
2022/04/16 11:44:31;;;;;;;5.13;3.92;;;17.70;99.90;;;;;;5053431;28;20281;-63
2022/04/16 11:46:58;;;;;;;4.03;3.63;;;17.90;99.90;;;;;;5053601;28;20253;-63
2022/04/16 11:49:24;;;;;;;3.90;3.53;;;17.80;99.90;;;;;;5053288;28;20598;-63
2022/04/16 11:51:50;;;;;;;3.72;3.35;;;17.90;99.90;;;;;;5054247;28;20177;-62
2022/04/16 11:54:27;;;;;;;4.43;3.53;;;18.20;99.90;;;;;;5053884;28;20232;-62
2022/04/16 11:56:55;;;;;;;3.60;3.22;;;18.20;99.90;;;;;;5053599;28;20158;-64
2022/04/16 11:59:25;;;;;;;4.65;2.92;;;18.30;99.90;;;;;;5053697;28;20229;-71
2022/04/16 12:02:05;;;;;;;3.97;3.03;;;18.50;99.90;;;;;;5052192;28;20701;-71
2022/04/16 12:04:41;;;;;;;3.75;2.70;;;18.60;99.90;;;;;;5053912;28;20242;-70
2022/04/16 12:07:11;;;;;;;4.60;3.25;;;18.50;99.90;;;;;;5054270;28;20197;-70
2022/04/16 12:09:48;;;;;;;4.85;3.13;;;18.60;99.90;;;;;;5053822;28;20179;-70
2022/04/16 12:12:15;;;;;;;3.20;2.90;;;18.60;99.90;;;;;;5052597;28;20269;-70
2022/04/16 12:14:59;;;;;;;3.28;2.97;;;18.80;99.90;;;;;;5053173;28;20281;-69
2022/04/16 12:17:27;;;;;;;3.38;2.65;;;18.80;99.90;;;;;;5055754;28;20190;-67
2022/04/16 12:20:06;;;;;;;2.78;2.35;;;19.10;99.90;;;;;;5058018;28;20205;-67
2022/04/16 12:22:33;;;;;;;2.70;2.50;;;19.30;99.90;;;;;;5057571;28;20533;-63
2022/04/16 12:25:11;;;;;;;2.60;2.35;;;19.40;99.90;;;;;;5057017;28;20181;-63
2022/04/16 12:27:44;;;;;;;5.70;2.80;;;19.60;99.90;;;;;;5055573;28;20204;-63
2022/04/16 12:30:13;;;;;;;3.92;2.30;;;19.40;99.90;;;;;;5057234;28;20220;-63
2022/04/16 12:32:39;;;;;;;2.63;2.38;;;19.50;99.90;;;;;;5057197;28;20181;-63
2022/04/16 12:35:06;;;;;;;3.45;2.20;;;19.60;99.90;;;;;;5055811;28;20236;-63
2022/04/16 12:37:31;;;;;;;2.80;2.55;;;20.10;99.90;;;;;;5057591;28;20170;-63
2022/04/16 12:39:57;;;;;;;2.85;2.30;;;20.30;99.90;;;;;;5056999;28;20571;-63
2022/04/16 12:42:23;;;;;;;3.53;2.33;;;20.60;99.90;;;;;;5057187;28;20171;-62
2022/04/16 12:44:48;;;;;;;3.47;2.20;;;20.70;99.90;;;;;;5055700;28;20179;-63
2022/04/16 12:47:14;;;;;;;4.43;2.40;;;21.00;99.90;;;;;;5056920;28;20196;-64
2022/04/16 12:49:40;;;;;;;3.08;2.28;;;21.10;99.90;;;;;;5056972;28;20205;-64
2022/04/16 12:52:06;;;;;;;2.67;2.30;;;20.60;99.90;;;;;;5057174;28;20166;-63
2022/04/16 12:54:35;;;;;;;2.78;2.33;;;20.40;99.90;;;;;;5055750;28;20232;-63
2022/04/16 12:57:01;;;;;;;2.55;2.30;;;20.50;99.90;;;;;;5057167;28;20512;-66
2022/04/16 12:59:27;;;;;;;2.97;2.30;;;21.10;99.90;;;;;;5057424;28;20158;-63
2022/04/16 13:01:52;;;;;;;4.35;2.25;;;21.20;99.90;;;;;;5056800;28;20198;-67